Terminal Aerodrome Forecast
Issued by NWS

Home | Current Version | Previous Version | Text Only | Print | Product List | Glossary On
Versions: 1 2 3 4 5 6 7 8 9 10 11 12 13 14
000
FTUS45 KGJT 310520
TAFVEL
TAF
KVEL 310520Z 3106/0106 08007KT P6SM SCT250
     FM311100 36006KT P6SM FEW250
     FM312100 07005KT P6SM SCT250
     FM010200 34006KT P6SM SCT250=

USA.gov is the U.S. government's official web portal to all federal, state and local government web resources and services.